Time;durP1;ratioP1;P1;durP2;ratioP2;P2;SDS_P1;SDS_P2;PMS_P1;PMS_P2;Temp;Humidity;BMP_temperature;BMP_pressure;BME280_temperature;BME280_humidity;BME280_pressure;Samples;Min_cycle;Max_cycle;Signal;HPM_P1;HPM_P2
2021/07/26 00:00:15;;;;;;;10.30;8.82;;;;;;;;;;5031524;28;20574;-64
2021/07/26 00:03:01;;;;;;;14.10;8.15;;;;;;;;;;5030189;28;20069;-64
2021/07/26 00:05:53;;;;;;;10.07;7.85;;;;;;;;;;5031907;28;20073;-64
2021/07/26 00:08:38;;;;;;;11.25;8.85;;;;;;;;;;5029841;28;20052;-64
2021/07/26 00:11:23;;;;;;;12.32;9.57;;;;;;;;;;5031589;28;20160;-66
2021/07/26 00:14:09;;;;;;;10.82;7.72;;;;;;;;;;5029178;28;20030;-64
2021/07/26 00:16:54;;;;;;;9.52;7.95;;;;;;;;;;5030211;28;20046;-67
2021/07/26 00:19:40;;;;;;;10.30;7.75;;;;;;;;;;5031272;28;20093;-66
2021/07/26 00:22:25;;;;;;;8.95;7.43;;;;;;;;;;5030215;28;20045;-67
2021/07/26 00:25:11;;;;;;;10.77;7.32;;;;;;;;;;5029562;28;20053;-67
2021/07/26 00:27:56;;;;;;;9.48;6.97;;;;;;;;;;5029633;28;20563;-65
2021/07/26 00:30:42;;;;;;;11.73;7.82;;;;;;;;;;5011543;28;20046;-67
2021/07/26 00:34:07;;;;;;;9.55;8.18;;;;;;;;;;5019092;28;20041;-67
2021/07/26 00:36:52;;;;;;;11.95;9.40;;;;;;;;;;5031423;28;20124;-67
2021/07/26 00:39:38;;;;;;;13.02;9.57;;;;;;;;;;5030105;28;20053;-67
2021/07/26 00:42:23;;;;;;;14.90;9.77;;;;;;;;;;5031272;28;20050;-67
2021/07/26 00:45:09;;;;;;;16.95;10.75;;;;;;;;;;5030640;28;20049;-67
2021/07/26 00:47:54;;;;;;;11.85;10.65;;;;;;;;;;5033406;28;20191;-66
2021/07/26 00:50:39;;;;;;;12.05;10.85;;;;;;;;;;5034569;28;20184;-67
2021/07/26 00:53:25;;;;;;;15.55;12.07;;;;;;;;;;5033430;28;20087;-66
2021/07/26 00:56:10;;;;;;;20.40;13.38;;;;;;;;;;5034795;28;20152;-67
2021/07/26 00:58:56;;;;;;;17.35;12.65;;;;;;;;;;5033252;28;20049;-65
2021/07/26 01:01:41;;;;;;;17.17;13.02;;;;;;;;;;5034579;28;20064;-65
2021/07/26 01:04:26;;;;;;;21.60;15.05;;;;;;;;;;5033866;28;20045;-65
2021/07/26 01:07:12;;;;;;;21.02;14.38;;;;;;;;;;5034539;28;20048;-65
2021/07/26 01:09:57;;;;;;;20.45;15.80;;;;;;;;;;5034313;28;20045;-65
2021/07/26 01:12:43;;;;;;;22.88;17.40;;;;;;;;;;5033127;28;20127;-66
2021/07/26 01:15:28;;;;;;;17.95;13.68;;;;;;;;;;5034345;28;20046;-65
2021/07/26 01:18:23;;;;;;;21.83;15.45;;;;;;;;;;5033552;28;20381;-65
2021/07/26 01:21:12;;;;;;;22.23;14.65;;;;;;;;;;5033262;28;20083;-65
2021/07/26 01:23:57;;;;;;;22.38;17.55;;;;;;;;;;5032952;28;20053;-65
2021/07/26 01:26:43;;;;;;;22.10;17.83;;;;;;;;;;5032037;28;20037;-65
2021/07/26 01:29:29;;;;;;;22.52;16.58;;;;;;;;;;5033734;28;20496;-65
2021/07/26 01:32:14;;;;;;;22.55;18.67;;;;;;;;;;5033156;28;20048;-65
2021/07/26 01:34:59;;;;;;;27.45;19.50;;;;;;;;;;5032750;28;20045;-64
2021/07/26 01:37:45;;;;;;;32.65;22.10;;;;;;;;;;5032832;28;20045;-65
2021/07/26 01:40:34;;;;;;;25.50;20.38;;;;;;;;;;5033624;28;20056;-64
2021/07/26 01:43:19;;;;;;;21.90;17.27;;;;;;;;;;5034046;28;20053;-65
2021/07/26 01:46:17;;;;;;;16.38;14.65;;;;;;;;;;5033016;28;20122;-65
2021/07/26 01:49:05;;;;;;;16.65;14.13;;;;;;;;;;5033602;28;20045;-64
2021/07/26 01:51:50;;;;;;;17.33;12.32;;;;;;;;;;5017874;28;20042;-64
2021/07/26 01:54:35;;;;;;;34.03;16.30;;;;;;;;;;5033709;28;20143;-64
2021/07/26 01:57:20;;;;;;;25.75;18.50;;;;;;;;;;5033645;28;20144;-65
2021/07/26 02:00:07;;;;;;;31.65;21.15;;;;;;;;;;5032439;28;20050;-64
2021/07/26 02:02:52;;;;;;;27.92;20.73;;;;;;;;;;5033567;28;20058;-66
2021/07/26 02:05:37;;;;;;;26.23;19.85;;;;;;;;;;5032639;28;20060;-64
2021/07/26 02:08:23;;;;;;;20.60;16.05;;;;;;;;;;5033275;28;20061;-64
2021/07/26 02:11:09;;;;;;;18.63;15.23;;;;;;;;;;5033137;28;20046;-64
2021/07/26 02:13:54;;;;;;;24.80;18.15;;;;;;;;;;5031862;28;20502;-64
2021/07/26 02:16:42;;;;;;;30.42;21.65;;;;;;;;;;5033270;28;20052;-64
2021/07/26 02:19:27;;;;;;;33.95;22.63;;;;;;;;;;5032801;28;20500;-64
2021/07/26 02:22:12;;;;;;;28.25;21.10;;;;;;;;;;5032291;28;20127;-65
2021/07/26 02:24:58;;;;;;;37.03;24.42;;;;;;;;;;5032116;28;20053;-64
2021/07/26 02:27:45;;;;;;;28.88;21.35;;;;;;;;;;5031208;28;20100;-64
2021/07/26 02:30:30;;;;;;;32.50;19.95;;;;;;;;;;5031857;28;20052;-64
2021/07/26 02:33:15;;;;;;;33.42;22.40;;;;;;;;;;5032912;28;20495;-64
2021/07/26 02:36:01;;;;;;;136.38;20.38;;;;;;;;;;5032973;28;20045;-65
2021/07/26 02:38:46;;;;;;;23.73;18.23;;;;;;;;;;5031656;28;20041;-64
2021/07/26 02:41:32;;;;;;;36.92;24.33;;;;;;;;;;5031791;28;20056;-64
2021/07/26 02:44:18;;;;;;;28.00;20.02;;;;;;;;;;5082028;22;20048;-64
2021/07/26 02:47:03;;;;;;;32.05;19.60;;;;;;;;;;5052528;28;20513;-64
2021/07/26 02:49:48;;;;;;;123.53;21.42;;;;;;;;;;5051517;28;20045;-65
2021/07/26 02:52:34;;;;;;;603.30;34.72;;;;;;;;;;5052558;28;20045;-63
2021/07/26 02:55:19;;;;;;;499.10;28.30;;;;;;;;;;5070785;28;20047;-63
2021/07/26 02:58:05;;;;;;;75.65;12.23;;;;;;;;;;5072456;28;20487;-64
2021/07/26 03:00:51;;;;;;;133.13;14.95;;;;;;;;;;5071313;28;20059;-64
2021/07/26 03:03:36;;;;;;;59.65;10.68;;;;;;;;;;5072273;28;20052;-64
2021/07/26 03:06:23;;;;;;;18.85;16.85;;;;;;;;;;5072562;28;20056;-64
2021/07/26 03:09:08;;;;;;;22.77;18.30;;;;;;;;;;5072129;28;20053;-63
2021/07/26 03:11:54;;;;;;;229.50;20.23;;;;;;;;;;5072185;28;20083;-63
2021/07/26 03:14:39;;;;;;;36.83;19.95;;;;;;;;;;5072326;28;20040;-64
2021/07/26 03:17:25;;;;;;;122.68;18.38;;;;;;;;;;5070041;28;20040;-63
2021/07/26 03:20:10;;;;;;;18.05;15.60;;;;;;;;;;5071958;28;20131;-64
2021/07/26 03:22:58;;;;;;;19.88;15.93;;;;;;;;;;5072259;28;20144;-63
2021/07/26 03:25:44;;;;;;;134.75;16.58;;;;;;;;;;5072026;28;20526;-63
2021/07/26 03:28:29;;;;;;;235.43;23.00;;;;;;;;;;5070415;28;20052;-64
2021/07/26 03:31:14;;;;;;;45.22;14.18;;;;;;;;;;5071662;28;20040;-64
2021/07/26 03:34:00;;;;;;;299.05;29.92;;;;;;;;;;5070326;28;20071;-64
2021/07/26 03:36:45;;;;;;;18.80;14.25;;;;;;;;;;5071978;28;20040;-64
2021/07/26 03:39:31;;;;;;;27.27;21.67;;;;;;;;;;5069653;28;20048;-63
2021/07/26 03:42:16;;;;;;;55.13;20.65;;;;;;;;;;5053763;28;20049;-64
2021/07/26 03:45:01;;;;;;;169.65;14.75;;;;;;;;;;5051634;28;20468;-64
2021/07/26 03:47:47;;;;;;;227.85;13.65;;;;;;;;;;5051760;28;20045;-63
2021/07/26 03:50:32;;;;;;;118.90;13.10;;;;;;;;;;5031662;28;20053;-64
2021/07/26 03:53:17;;;;;;;174.77;15.68;;;;;;;;;;5031850;28;20049;-64
2021/07/26 03:56:03;;;;;;;53.30;10.70;;;;;;;;;;5031727;28;20053;-64
2021/07/26 03:58:48;;;;;;;114.47;14.80;;;;;;;;;;5038072;28;20040;-64
2021/07/26 04:01:34;;;;;;;244.98;21.45;;;;;;;;;;5071455;28;20051;-63
2021/07/26 04:04:19;;;;;;;247.02;25.08;;;;;;;;;;5071540;28;20410;-64
2021/07/26 04:07:14;;;;;;;44.75;18.45;;;;;;;;;;5071565;28;20102;-64
2021/07/26 04:10:03;;;;;;;40.08;20.30;;;;;;;;;;5068538;28;20048;-63
2021/07/26 04:12:51;;;;;;;21.98;19.50;;;;;;;;;;5071633;28;20036;-64
2021/07/26 04:15:39;;;;;;;41.80;30.13;;;;;;;;;;5071767;28;20056;-63
2021/07/26 04:18:25;;;;;;;39.08;23.95;;;;;;;;;;5071601;28;20049;-63
2021/07/26 04:21:10;;;;;;;270.27;29.08;;;;;;;;;;5069509;28;20101;-64
2021/07/26 04:23:56;;;;;;;26.50;21.75;;;;;;;;;;5075349;28;20079;-64
2021/07/26 04:26:42;;;;;;;45.25;32.15;;;;;;;;;;5060655;28;20154;-64
2021/07/26 04:29:27;;;;;;;40.72;30.20;;;;;;;;;;5054313;28;20060;-64
2021/07/26 04:32:13;;;;;;;42.55;31.73;;;;;;;;;;5035300;28;20053;-64
2021/07/26 04:35:04;;;;;;;39.03;31.83;;;;;;;;;;5035336;28;20052;-65
2021/07/26 04:37:50;;;;;;;28.80;25.05;;;;;;;;;;5036770;28;20051;-64
2021/07/26 04:40:35;;;;;;;49.75;35.97;;;;;;;;;;5060328;28;20513;-64
2021/07/26 04:43:20;;;;;;;30.55;26.70;;;;;;;;;;5074825;28;20044;-64
2021/07/26 04:46:09;;;;;;;30.08;23.58;;;;;;;;;;5074831;28;20059;-64
2021/07/26 04:49:04;;;;;;;39.75;33.08;;;;;;;;;;5074830;28;20052;-64
2021/07/26 04:51:50;;;;;;;42.55;32.88;;;;;;;;;;5072790;28;20125;-64
2021/07/26 04:54:36;;;;;;;34.45;28.67;;;;;;;;;;5074855;28;20059;-64
2021/07/26 04:57:24;;;;;;;30.40;26.58;;;;;;;;;;5074829;28;20402;-63
2021/07/26 05:00:09;;;;;;;31.17;26.02;;;;;;;;;;5073554;28;20063;-64
2021/07/26 05:02:55;;;;;;;31.85;26.88;;;;;;;;;;5074050;28;20059;-64
2021/07/26 05:05:40;;;;;;;30.58;27.13;;;;;;;;;;5074654;28;20045;-65
2021/07/26 05:08:25;;;;;;;30.63;27.30;;;;;;;;;;5074426;28;20498;-65
2021/07/26 05:11:11;;;;;;;48.08;34.75;;;;;;;;;;5072571;28;20155;-65
2021/07/26 05:13:56;;;;;;;40.03;31.35;;;;;;;;;;5074428;28;20045;-64
2021/07/26 05:16:42;;;;;;;49.78;37.90;;;;;;;;;;5074515;28;20044;-64
2021/07/26 05:19:27;;;;;;;45.40;37.38;;;;;;;;;;5074002;28;20044;-64
2021/07/26 05:22:12;;;;;;;42.95;35.65;;;;;;;;;;5072683;28;20055;-64
2021/07/26 05:24:58;;;;;;;39.20;33.88;;;;;;;;;;5074064;28;20521;-64
2021/07/26 05:27:43;;;;;;;44.78;36.65;;;;;;;;;;5074036;28;20049;-64
2021/07/26 05:30:29;;;;;;;44.58;37.75;;;;;;;;;;5073904;28;20048;-64
2021/07/26 05:33:14;;;;;;;36.50;32.47;;;;;;;;;;5071704;28;20055;-64
2021/07/26 05:35:59;;;;;;;39.75;35.33;;;;;;;;;;5073904;28;20044;-64
2021/07/26 05:38:45;;;;;;;35.47;31.58;;;;;;;;;;5074046;28;20059;-63
2021/07/26 05:41:30;;;;;;;45.53;36.97;;;;;;;;;;5073643;28;20047;-63
2021/07/26 05:44:15;;;;;;;36.90;32.60;;;;;;;;;;5072011;28;20051;-63
2021/07/26 05:47:01;;;;;;;45.95;39.05;;;;;;;;;;5073826;28;20033;-64
2021/07/26 05:49:46;;;;;;;42.08;36.00;;;;;;;;;;5073517;28;20050;-64
2021/07/26 05:52:31;;;;;;;37.03;33.30;;;;;;;;;;5071605;28;21779;-64
2021/07/26 05:55:17;;;;;;;39.10;34.90;;;;;;;;;;5073525;28;20047;-64
2021/07/26 05:58:04;;;;;;;40.40;35.45;;;;;;;;;;5073656;28;20044;-65
2021/07/26 06:00:57;;;;;;;40.38;35.20;;;;;;;;;;5073067;28;20545;-63
2021/07/26 06:03:44;;;;;;;40.67;35.72;;;;;;;;;;5069159;28;20033;-64
2021/07/26 06:06:29;;;;;;;41.10;36.65;;;;;;;;;;5053041;28;20403;-64
2021/07/26 06:09:14;;;;;;;39.83;35.50;;;;;;;;;;5051447;28;20044;-64
2021/07/26 06:12:00;;;;;;;41.90;36.22;;;;;;;;;;5052229;28;20052;-64
2021/07/26 06:14:45;;;;;;;42.65;37.10;;;;;;;;;;5052158;28;20765;-63
2021/07/26 06:17:30;;;;;;;47.60;37.83;;;;;;;;;;5052037;28;20083;-64
2021/07/26 06:20:16;;;;;;;42.97;38.38;;;;;;;;;;5051548;28;20071;-63
2021/07/26 06:23:01;;;;;;;42.17;37.67;;;;;;;;;;5051296;28;20044;-64
2021/07/26 06:25:47;;;;;;;36.55;32.85;;;;;;;;;;5050961;28;20044;-64
2021/07/26 06:28:33;;;;;;;34.17;30.73;;;;;;;;;;5051960;28;20045;-64
2021/07/26 06:31:18;;;;;;;35.72;32.13;;;;;;;;;;5049377;28;20048;-64
2021/07/26 06:34:04;;;;;;;27.85;25.30;;;;;;;;;;5049658;28;20041;-65
2021/07/26 06:36:49;;;;;;;28.80;26.00;;;;;;;;;;5051287;28;20502;-64
2021/07/26 06:39:35;;;;;;;31.67;28.30;;;;;;;;;;5050795;28;20136;-64
2021/07/26 06:42:20;;;;;;;27.58;24.88;;;;;;;;;;5050086;28;20074;-63
2021/07/26 06:45:09;;;;;;;29.00;26.15;;;;;;;;;;5047682;28;20040;-64
2021/07/26 06:47:54;;;;;;;27.55;24.92;;;;;;;;;;5051459;28;20036;-64
2021/07/26 06:50:40;;;;;;;23.42;21.08;;;;;;;;;;5048206;28;20040;-64
2021/07/26 06:53:25;;;;;;;21.23;19.23;;;;;;;;;;5050611;28;20514;-64
2021/07/26 06:56:11;;;;;;;26.00;23.08;;;;;;;;;;5051251;28;20179;-64
2021/07/26 06:58:56;;;;;;;22.70;20.50;;;;;;;;;;5050239;28;20598;-64
2021/07/26 07:01:42;;;;;;;21.75;19.63;;;;;;;;;;5049091;28;20183;-64
2021/07/26 07:04:28;;;;;;;20.15;18.35;;;;;;;;;;5051433;28;20053;-64
2021/07/26 07:07:13;;;;;;;20.13;18.23;;;;;;;;;;5051487;28;20041;-65
2021/07/26 07:09:58;;;;;;;24.48;21.88;;;;;;;;;;5050072;28;20044;-64
2021/07/26 07:12:44;;;;;;;20.88;17.45;;;;;;;;;;5049987;28;20483;-64
2021/07/26 07:15:30;;;;;;;17.80;16.02;;;;;;;;;;5050326;28;20060;-65
2021/07/26 07:18:15;;;;;;;17.20;15.65;;;;;;;;;;5051474;28;20122;-65
2021/07/26 07:21:00;;;;;;;16.42;14.82;;;;;;;;;;5049217;28;20414;-65
2021/07/26 07:23:46;;;;;;;16.05;14.48;;;;;;;;;;5050220;28;20041;-64
2021/07/26 07:26:32;;;;;;;16.17;14.52;;;;;;;;;;5050587;28;20183;-64
2021/07/26 07:29:17;;;;;;;17.05;15.52;;;;;;;;;;5049873;28;20051;-64
2021/07/26 07:32:04;;;;;;;18.15;16.45;;;;;;;;;;5049986;28;20603;-65
2021/07/26 07:34:49;;;;;;;21.08;18.88;;;;;;;;;;5050497;28;20519;-64
2021/07/26 07:37:36;;;;;;;18.92;16.90;;;;;;;;;;5050851;28;20091;-65
2021/07/26 07:40:23;;;;;;;17.48;15.73;;;;;;;;;;5050432;28;20041;-65
2021/07/26 07:43:08;;;;;;;17.98;16.23;;;;;;;;;;5052037;28;20049;-64
2021/07/26 07:45:54;;;;;;;17.30;15.43;;;;;;;;;;5050885;28;20045;-65
2021/07/26 07:48:40;;;;;;;16.42;14.93;;;;;;;;;;5050901;28;20067;-64
2021/07/26 07:51:26;;;;;;;17.00;15.40;;;;;;;;;;5050236;28;20126;-65
2021/07/26 07:54:12;;;;;;;17.15;15.55;;;;;;;;;;5051028;28;20411;-65
2021/07/26 07:56:58;;;;;;;14.63;13.15;;;;;;;;;;5052236;28;20040;-65
2021/07/26 07:59:44;;;;;;;15.80;14.05;;;;;;;;;;5054807;28;20052;-64
2021/07/26 08:02:30;;;;;;;15.20;13.80;;;;;;;;;;5035776;28;20570;-65
2021/07/26 08:05:17;;;;;;;15.02;13.52;;;;;;;;;;5052120;28;20041;-64
2021/07/26 08:08:03;;;;;;;15.77;14.18;;;;;;;;;;5052875;28;20525;-65
2021/07/26 08:10:48;;;;;;;15.48;13.85;;;;;;;;;;5054356;28;20536;-65
2021/07/26 08:13:37;;;;;;;13.13;11.90;;;;;;;;;;5053209;28;20052;-65
2021/07/26 08:16:23;;;;;;;14.80;13.32;;;;;;;;;;5053643;28;20495;-64
2021/07/26 08:19:09;;;;;;;14.27;12.82;;;;;;;;;;5054713;28;20059;-64
2021/07/26 08:21:54;;;;;;;15.05;13.52;;;;;;;;;;5052707;28;20144;-66
2021/07/26 08:24:40;;;;;;;14.70;13.40;;;;;;;;;;5053211;28;20129;-65
2021/07/26 08:27:25;;;;;;;13.52;12.23;;;;;;;;;;5054046;28;20045;-65
2021/07/26 08:30:11;;;;;;;13.30;12.05;;;;;;;;;;5046463;28;20691;-65
2021/07/26 08:32:56;;;;;;;12.07;10.93;;;;;;;;;;5049367;28;20500;-65
2021/07/26 08:35:41;;;;;;;12.52;11.25;;;;;;;;;;5045026;28;20060;-65
2021/07/26 08:38:26;;;;;;;11.68;10.10;;;;;;;;;;5050913;28;20048;-65
2021/07/26 08:41:13;;;;;;;13.27;10.93;;;;;;;;;;5052771;28;20067;-65
2021/07/26 08:43:58;;;;;;;11.55;10.35;;;;;;;;;;5090423;22;20407;-66
2021/07/26 08:46:43;;;;;;;12.35;11.02;;;;;;;;;;4985028;28;20404;-67
2021/07/26 08:49:28;;;;;;;12.27;10.18;;;;;;;;;;4984804;28;20053;-67
2021/07/26 08:52:16;;;;;;;10.73;9.30;;;;;;;;;;4979249;28;20408;-66
2021/07/26 08:55:02;;;;;;;10.50;9.13;;;;;;;;;;4978272;28;20160;-65
2021/07/26 08:57:47;;;;;;;9.88;7.60;;;;;;;;;;4979710;28;20154;-67
2021/07/26 09:00:33;;;;;;;8.55;7.75;;;;;;;;;;4979334;28;20586;-65
2021/07/26 09:03:18;;;;;;;9.50;7.15;;;;;;;;;;4975720;28;20054;-66
2021/07/26 09:06:04;;;;;;;7.70;7.00;;;;;;;;;;4965206;28;20572;-66
2021/07/26 09:08:49;;;;;;;6.70;5.97;;;;;;;;;;4972947;28;20050;-67
2021/07/26 09:11:44;;;;;;;7.28;4.82;;;;;;;;;;4963962;28;20082;-66
2021/07/26 09:14:37;;;;;;;5.75;5.03;;;;;;;;;;4953111;28;20046;-67
2021/07/26 09:17:22;;;;;;;5.85;4.40;;;;;;;;;;4972476;28;20165;-66
2021/07/26 09:20:08;;;;;;;6.53;5.60;;;;;;;;;;4973230;28;20050;-67
2021/07/26 09:22:53;;;;;;;4.93;4.32;;;;;;;;;;4973674;28;20514;-66
2021/07/26 09:25:39;;;;;;;5.40;4.15;;;;;;;;;;4969290;28;20793;-66
2021/07/26 09:28:24;;;;;;;9.55;6.18;;;;;;;;;;4960275;28;20046;-67
2021/07/26 09:31:09;;;;;;;6.82;5.10;;;;;;;;;;4978165;28;20055;-66
2021/07/26 09:33:54;;;;;;;6.57;5.30;;;;;;;;;;4982440;28;20045;-66
2021/07/26 09:36:41;;;;;;;6.75;5.78;;;;;;;;;;4981538;28;20524;-66
2021/07/26 09:39:27;;;;;;;7.72;5.50;;;;;;;;;;4967617;28;20038;-68
2021/07/26 09:42:26;;;;;;;5.63;5.07;;;;;;;;;;4961853;28;20063;-68
2021/07/26 09:45:25;;;;;;;5.60;4.60;;;;;;;;;;4960058;28;20089;-69
2021/07/26 09:48:11;;;;;;;6.40;4.45;;;;;;;;;;4963933;28;20086;-69
2021/07/26 09:50:57;;;;;;;5.65;5.15;;;;;;;;;;4962702;28;20066;-68
2021/07/26 09:53:49;;;;;;;5.68;4.35;;;;;;;;;;4956406;28;20047;-65
2021/07/26 09:56:35;;;;;;;6.35;5.22;;;;;;;;;;4963850;28;20061;-66
2021/07/26 09:59:24;;;;;;;6.15;5.60;;;;;;;;;;4957513;28;20058;-66
2021/07/26 10:02:11;;;;;;;7.40;6.35;;;;;;;;;;4958850;28;20055;-66
2021/07/26 10:04:57;;;;;;;6.60;5.90;;;;;;;;;;4962587;28;20169;-66
2021/07/26 10:07:42;;;;;;;6.32;5.68;;;;;;;;;;4966269;28;20042;-65
2021/07/26 10:10:28;;;;;;;6.30;5.40;;;;;;;;;;4959739;28;20043;-64
2021/07/26 10:13:13;;;;;;;5.85;4.65;;;;;;;;;;4958110;28;20137;-68
2021/07/26 10:15:58;;;;;;;6.55;5.22;;;;;;;;;;4953493;28;20506;-65
2021/07/26 10:18:46;;;;;;;6.53;5.32;;;;;;;;;;4989099;28;20038;-66
2021/07/26 10:21:32;;;;;;;9.68;5.78;;;;;;;;;;4976464;28;20093;-65
2021/07/26 10:24:18;;;;;;;5.40;4.72;;;;;;;;;;4977749;28;20050;-64
2021/07/26 10:27:03;;;;;;;8.27;5.13;;;;;;;;;;4994610;28;20054;-64
2021/07/26 10:29:58;;;;;;;4.85;4.35;;;;;;;;;;4977471;28;20068;-63
2021/07/26 10:32:43;;;;;;;5.93;4.43;;;;;;;;;;4976762;28;20061;-63
2021/07/26 10:35:35;;;;;;;4.60;4.10;;;;;;;;;;4976115;28;20034;-64
2021/07/26 10:38:39;;;;;;;7.45;5.15;;;;;;;;;;4971432;28;20053;-64
2021/07/26 10:41:43;;;;;;;5.18;4.68;;;;;;;;;;4967032;28;20042;-64
2021/07/26 10:44:29;;;;;;;4.90;4.40;;;;;;;;;;4970918;28;20049;-64
2021/07/26 10:47:15;;;;;;;5.45;4.88;;;;;;;;;;4971078;28;20497;-64
2021/07/26 10:50:10;;;;;;;4.88;4.38;;;;;;;;;;4969531;28;20129;-64
2021/07/26 10:52:56;;;;;;;4.93;4.43;;;;;;;;;;4976208;28;20047;-64
2021/07/26 10:56:00;;;;;;;5.25;4.53;;;;;;;;;;4976523;28;20413;-65
2021/07/26 10:58:48;;;;;;;4.90;4.40;;;;;;;;;;4981468;28;20204;-65
2021/07/26 11:01:33;;;;;;;4.10;3.42;;;;;;;;;;4973963;28;20046;-65
2021/07/26 11:04:34;;;;;;;4.30;3.90;;;;;;;;;;4979181;28;20042;-65
2021/07/26 11:07:27;;;;;;;4.38;3.30;;;;;;;;;;4976362;28;20057;-66
2021/07/26 11:10:33;;;;;;;4.90;3.30;;;;;;;;;;4970952;28;20047;-66
2021/07/26 11:13:19;;;;;;;5.43;3.80;;;;;;;;;;4955022;28;20055;-65
2021/07/26 11:16:04;;;;;;;5.22;3.22;;;;;;;;;;4952537;28;20179;-67
2021/07/26 11:18:51;;;;;;;4.13;3.72;;;;;;;;;;4970967;28;20547;-67
2021/07/26 11:21:41;;;;;;;4.00;3.42;;;;;;;;;;4968158;28;20544;-67
2021/07/26 11:24:42;;;;;;;4.45;3.13;;;;;;;;;;4960771;28;20215;-66
2021/07/26 11:27:33;;;;;;;4.68;2.63;;;;;;;;;;4960669;28;20113;-68
2021/07/26 11:30:20;;;;;;;5.22;3.55;;;;;;;;;;4961337;28;20073;-66
2021/07/26 11:33:05;;;;;;;4.13;3.30;;;;;;;;;;4961981;28;20528;-66
2021/07/26 11:35:50;;;;;;;3.67;2.85;;;;;;;;;;4960538;28;20057;-66
2021/07/26 11:38:54;;;;;;;4.72;2.90;;;;;;;;;;4962768;28;20516;-66
2021/07/26 11:41:51;;;;;;;3.95;2.80;;;;;;;;;;4965413;28;20552;-66
2021/07/26 11:44:36;;;;;;;3.53;2.47;;;;;;;;;;4959918;28;20061;-66
2021/07/26 11:47:40;;;;;;;2.90;2.40;;;;;;;;;;4956513;28;20042;-66
2021/07/26 11:50:38;;;;;;;2.47;1.92;;;;;;;;;;4951133;28;20550;-67
2021/07/26 11:53:34;;;;;;;3.55;2.42;;;;;;;;;;4961068;28;20116;-67
2021/07/26 11:56:19;;;;;;;2.55;2.10;;;;;;;;;;4967544;28;20051;-67
2021/07/26 11:59:14;;;;;;;2.28;1.88;;;;;;;;;;4970347;28;20054;-67
2021/07/26 12:02:00;;;;;;;3.60;2.03;;;;;;;;;;4971114;28;20070;-66
2021/07/26 12:04:45;;;;;;;3.75;2.30;;;;;;;;;;4970884;28;20487;-67
2021/07/26 12:07:46;;;;;;;3.65;2.50;;;;;;;;;;4967081;28;20050;-66
2021/07/26 12:10:32;;;;;;;2.45;2.08;;;;;;;;;;4968746;28;20035;-66
2021/07/26 12:13:19;;;;;;;2.10;1.90;;;;;;;;;;4960788;28;20062;-67
2021/07/26 12:16:12;;;;;;;2.38;1.70;;;;;;;;;;4970911;28;20042;-67
2021/07/26 12:19:17;;;;;;;1.88;1.77;;;;;;;;;;4959042;28;20051;-67
2021/07/26 12:22:14;;;;;;;3.53;1.55;;;;;;;;;;4962921;28;20050;-67
2021/07/26 12:25:00;;;;;;;2.33;2.00;;;;;;;;;;4970349;28;20432;-67
2021/07/26 12:27:54;;;;;;;3.63;1.95;;;;;;;;;;4971635;28;20049;-67
2021/07/26 12:30:41;;;;;;;2.50;2.13;;;;;;;;;;4969259;28;20062;-67
2021/07/26 12:33:33;;;;;;;2.75;1.70;;;;;;;;;;4962710;28;20040;-67
2021/07/26 12:36:18;;;;;;;;;;;;;;;;;;4952499;28;20518;-66
2021/07/26 12:39:04;;;;;;;3.35;2.10;;;;;;;;;;4953129;28;20016;-65
2021/07/26 12:41:50;;;;;;;3.95;2.25;;;;;;;;;;4969366;28;20055;-66
2021/07/26 12:44:36;;;;;;;8.38;2.90;;;;;;;;;;4975631;28;20051;-66
2021/07/26 12:47:33;;;;;;;3.60;2.28;;;;;;;;;;4975778;28;20053;-66
2021/07/26 12:50:18;;;;;;;3.38;1.88;;;;;;;;;;4972724;28;20051;-66
2021/07/26 12:53:04;;;;;;;2.60;2.08;;;;;;;;;;4956697;28;20444;-66
2021/07/26 12:55:49;;;;;;;4.00;2.22;;;;;;;;;;4956774;29;20061;-66
2021/07/26 12:58:35;;;;;;;3.38;2.05;;;;;;;;;;4971596;28;20057;-67
2021/07/26 13:01:20;;;;;;;3.90;2.28;;;;;;;;;;4975708;28;20404;-66
2021/07/26 13:04:08;;;;;;;3.17;1.50;;;;;;;;;;4962183;28;20167;-66
2021/07/26 13:06:53;;;;;;;3.53;1.90;;;;;;;;;;4956490;28;20490;-66
2021/07/26 13:09:39;;;;;;;2.25;2.05;;;;;;;;;;4956568;28;20049;-67
2021/07/26 13:12:25;;;;;;;3.33;2.30;;;;;;;;;;4956578;28;20044;-67
2021/07/26 13:15:10;;;;;;;2.05;1.83;;;;;;;;;;4956397;28;20047;-67
2021/07/26 13:17:55;;;;;;;2.00;1.58;;;;;;;;;;4956079;28;20050;-65
2021/07/26 13:20:41;;;;;;;2.53;1.67;;;;;;;;;;4956057;28;20040;-66
2021/07/26 13:23:26;;;;;;;2.40;1.90;;;;;;;;;;4956086;28;20051;-65
2021/07/26 13:26:12;;;;;;;2.00;1.63;;;;;;;;;;4956172;28;20134;-65
2021/07/26 13:28:57;;;;;;;5.53;2.10;;;;;;;;;;4956123;28;20774;-65
2021/07/26 13:31:43;;;;;;;3.05;1.98;;;;;;;;;;4969370;28;20512;-66
2021/07/26 13:34:28;;;;;;;4.03;2.20;;;;;;;;;;4975274;28;20070;-65
2021/07/26 13:37:14;;;;;;;4.03;2.10;;;;;;;;;;4970875;28;20497;-65
2021/07/26 13:39:59;;;;;;;3.97;2.00;;;;;;;;;;4955366;28;20490;-66
2021/07/26 13:42:46;;;;;;;5.95;2.65;;;;;;;;;;4963249;28;20422;-65
2021/07/26 13:45:32;;;;;;;3.38;1.60;;;;;;;;;;4973217;28;20125;-65
2021/07/26 13:48:18;;;;;;;3.10;1.65;;;;;;;;;;4972632;28;21980;-65
2021/07/26 13:51:03;;;;;;;3.75;1.83;;;;;;;;;;4954529;29;20047;-65
2021/07/26 13:53:48;;;;;;;1.88;1.33;;;;;;;;;;4955473;28;20046;-66
2021/07/26 13:56:33;;;;;;;2.15;1.73;;;;;;;;;;4955631;28;20051;-65
2021/07/26 13:59:19;;;;;;;3.05;1.83;;;;;;;;;;4955523;28;20058;-65
2021/07/26 14:02:05;;;;;;;3.20;1.90;;;;;;;;;;4957653;28;20054;-64
2021/07/26 14:04:50;;;;;;;1.75;1.65;;;;;;;;;;4955534;28;20043;-65
2021/07/26 14:07:35;;;;;;;2.22;2.05;;;;;;;;;;4955046;28;20047;-64
2021/07/26 14:10:21;;;;;;;3.08;2.17;;;;;;;;;;4954565;28;20494;-66
2021/07/26 14:13:07;;;;;;;4.55;2.05;;;;;;;;;;4963698;28;20462;-65
2021/07/26 14:15:52;;;;;;;2.60;2.40;;;;;;;;;;4955168;28;20487;-64
2021/07/26 14:18:37;;;;;;;2.10;1.80;;;;;;;;;;4953716;28;20465;-67
2021/07/26 14:21:22;;;;;;;4.07;2.28;;;;;;;;;;4954927;28;20047;-65
2021/07/26 14:24:08;;;;;;;3.00;2.58;;;;;;;;;;4955134;29;20065;-65
2021/07/26 14:26:53;;;;;;;3.10;2.80;;;;;;;;;;4955133;29;20498;-65
2021/07/26 14:29:39;;;;;;;6.60;2.97;;;;;;;;;;4973706;28;20047;-65
2021/07/26 14:32:24;;;;;;;2.70;2.47;;;;;;;;;;4973096;28;20628;-64
2021/07/26 14:35:10;;;;;;;3.03;2.72;;;;;;;;;;4964409;28;20155;-64
2021/07/26 14:37:55;;;;;;;3.47;2.50;;;;;;;;;;4954970;28;20053;-65
2021/07/26 14:40:43;;;;;;;3.15;2.60;;;;;;;;;;4953638;29;20091;-65
2021/07/26 14:43:28;;;;;;;2.78;2.58;;;;;;;;;;4955156;28;20529;-65
2021/07/26 14:46:14;;;;;;;6.00;2.20;;;;;;;;;;5063337;22;20045;-65
2021/07/26 14:48:59;;;;;;;3.85;2.13;;;;;;;;;;5052681;28;20045;-65
2021/07/26 14:51:44;;;;;;;1.90;1.65;;;;;;;;;;5052445;28;20041;-65
2021/07/26 14:54:30;;;;;;;2.33;1.80;;;;;;;;;;5051725;28;20067;-65
2021/07/26 14:57:15;;;;;;;2.90;1.63;;;;;;;;;;5072482;28;20178;-65
2021/07/26 15:00:00;;;;;;;1.73;1.60;;;;;;;;;;5069247;28;20049;-65
2021/07/26 15:02:46;;;;;;;1.67;1.58;;;;;;;;;;5032378;28;20536;-65
2021/07/26 15:05:31;;;;;;;1.55;1.45;;;;;;;;;;5031944;28;20060;-65
2021/07/26 15:08:17;;;;;;;1.38;1.27;;;;;;;;;;5032342;28;20515;-65
2021/07/26 15:11:02;;;;;;;2.05;1.50;;;;;;;;;;5045340;28;20036;-65
2021/07/26 15:13:48;;;;;;;1.85;1.40;;;;;;;;;;5070511;28;20098;-65
2021/07/26 15:16:33;;;;;;;1.40;1.30;;;;;;;;;;5072197;28;20471;-65
2021/07/26 15:19:18;;;;;;;2.08;1.23;;;;;;;;;;5072012;28;20052;-65
2021/07/26 15:22:04;;;;;;;2.85;1.30;;;;;;;;;;5070280;28;20604;-65
2021/07/26 15:24:49;;;;;;;3.00;1.38;;;;;;;;;;5072044;28;20194;-65
2021/07/26 15:27:35;;;;;;;1.77;1.45;;;;;;;;;;5072056;28;20059;-65
2021/07/26 15:30:21;;;;;;;1.40;1.30;;;;;;;;;;5071729;28;20055;-65
2021/07/26 15:33:06;;;;;;;1.60;1.50;;;;;;;;;;5070166;28;20521;-65
2021/07/26 15:35:51;;;;;;;1.58;1.48;;;;;;;;;;5071855;28;20145;-65
2021/07/26 15:38:37;;;;;;;1.38;1.27;;;;;;;;;;5072003;28;20051;-64
2021/07/26 15:41:22;;;;;;;2.05;1.50;;;;;;;;;;5069874;28;20403;-65
2021/07/26 15:44:08;;;;;;;2.42;1.60;;;;;;;;;;5071844;28;20155;-65
2021/07/26 15:46:53;;;;;;;2.50;1.98;;;;;;;;;;5066474;28;20170;-74
2021/07/26 15:49:38;;;;;;;2.85;1.40;;;;;;;;;;5071525;28;20043;-65
2021/07/26 15:52:24;;;;;;;2.20;1.73;;;;;;;;;;5069004;28;20456;-66
2021/07/26 15:55:10;;;;;;;2.58;1.60;;;;;;;;;;5071867;28;20040;-65
2021/07/26 15:57:55;;;;;;;2.42;1.55;;;;;;;;;;5071835;28;20044;-65
2021/07/26 16:00:40;;;;;;;4.38;1.65;;;;;;;;;;5069744;28;20546;-65
2021/07/26 16:03:26;;;;;;;2.25;1.65;;;;;;;;;;5071928;28;20060;-65
2021/07/26 16:06:11;;;;;;;1.73;1.63;;;;;;;;;;5071591;28;20048;-65
2021/07/26 16:08:57;;;;;;;1.85;1.50;;;;;;;;;;5071734;28;20403;-65
2021/07/26 16:11:42;;;;;;;1.73;1.50;;;;;;;;;;5068649;28;20119;-65
2021/07/26 16:14:27;;;;;;;4.65;2.55;;;;;;;;;;5071662;28;20045;-65
2021/07/26 16:17:13;;;;;;;3.83;2.80;;;;;;;;;;5072927;28;20048;-65
2021/07/26 16:19:58;;;;;;;3.13;2.92;;;;;;;;;;5075341;28;20055;-64
2021/07/26 16:22:43;;;;;;;5.18;3.35;;;;;;;;;;5073799;28;20037;-64